createdAt,value
2022-12-14T00:01:48.808Z,-3.29
2022-12-14T00:04:17.112Z,-3.36
2022-12-14T00:06:44.755Z,-3.32
2022-12-14T00:09:12.336Z,-3.31
2022-12-14T00:11:40.175Z,-3.26
2022-12-14T00:14:07.704Z,-3.20
2022-12-14T00:16:36.080Z,-3.22
2022-12-14T00:19:05.404Z,-3.28
2022-12-14T00:21:32.941Z,-3.31
2022-12-14T00:24:01.153Z,-3.31
2022-12-14T00:26:32.032Z,-3.29
2022-12-14T00:29:01.689Z,-3.33
2022-12-14T00:31:31.413Z,-3.33
2022-12-14T00:33:59.448Z,-3.31
2022-12-14T00:36:28.174Z,-3.33
2022-12-14T00:38:55.695Z,-3.36
2022-12-14T00:41:23.270Z,-3.42
2022-12-14T00:43:50.779Z,-3.38
2022-12-14T00:46:18.780Z,-3.44
2022-12-14T00:48:46.448Z,-3.38
2022-12-14T00:51:14.899Z,-3.40
2022-12-14T00:53:44.698Z,-3.43
2022-12-14T00:56:13.110Z,-3.43
2022-12-14T00:58:40.878Z,-3.52
2022-12-14T01:01:13.369Z,-3.48
2022-12-14T01:03:41.713Z,-3.53
2022-12-14T01:06:29.557Z,-3.55
2022-12-14T01:08:57.069Z,-3.62
2022-12-14T01:11:24.565Z,-3.63
2022-12-14T01:13:52.114Z,-3.66
2022-12-14T01:16:19.676Z,-3.69
2022-12-14T01:18:47.205Z,-3.80
2022-12-14T01:21:21.203Z,-3.72
2022-12-14T01:23:52.256Z,-3.80
2022-12-14T01:26:21.082Z,-3.81
2022-12-14T01:28:51.532Z,-3.84
2022-12-14T01:31:21.719Z,-4.09
2022-12-14T01:33:49.710Z,-3.88
2022-12-14T01:36:20.034Z,-3.86
2022-12-14T01:38:48.424Z,-3.93
2022-12-14T01:41:27.072Z,-3.93
2022-12-14T01:43:57.524Z,-4.02
2022-12-14T01:46:34.593Z,-4.05
2022-12-14T01:49:24.135Z,-4.05
2022-12-14T01:51:57.459Z,-4.10
2022-12-14T01:54:27.535Z,-4.10
2022-12-14T01:56:56.556Z,-4.08
2022-12-14T01:59:30.859Z,-4.10
2022-12-14T02:02:00.038Z,-4.10
2022-12-14T02:04:28.198Z,-4.16
2022-12-14T02:07:00.926Z,-4.08
2022-12-14T02:09:40.549Z,-4.14
2022-12-14T02:12:17.732Z,-4.02
2022-12-14T02:14:46.391Z,-4.05
2022-12-14T02:17:15.816Z,-4.11
2022-12-14T02:19:46.763Z,-4.10
2022-12-14T02:22:42.293Z,-4.06
2022-12-14T02:25:33.925Z,-4.10
2022-12-14T02:28:22.012Z,-4.06
2022-12-14T02:31:11.196Z,-4.11
2022-12-14T02:33:38.637Z,-4.17
2022-12-14T02:36:25.580Z,-4.20
2022-12-14T02:39:12.283Z,-4.22
2022-12-14T02:42:14.792Z,-4.28
2022-12-14T02:44:57.160Z,-4.31
2022-12-14T02:47:54.339Z,-4.34
2022-12-14T02:50:28.156Z,-4.32
2022-12-14T02:53:10.962Z,-4.44
2022-12-14T02:55:45.250Z,-4.43
2022-12-14T02:58:18.605Z,-4.43
2022-12-14T03:00:46.646Z,-4.49
2022-12-14T03:03:14.132Z,-4.48
2022-12-14T03:05:41.639Z,-4.51
2022-12-14T03:08:17.481Z,-4.50
2022-12-14T03:11:03.161Z,-4.48
2022-12-14T03:13:36.885Z,-4.55
2022-12-14T03:16:08.719Z,-4.58
2022-12-14T03:18:41.434Z,-4.59
2022-12-14T03:21:13.039Z,-4.59
2022-12-14T03:23:42.972Z,-4.66
2022-12-14T03:26:20.951Z,-4.63
2022-12-14T03:28:52.326Z,-4.68
2022-12-14T03:31:44.439Z,-4.70
2022-12-14T03:34:20.230Z,-4.71
2022-12-14T03:36:58.089Z,-4.66
2022-12-14T03:39:33.205Z,-4.64
2022-12-14T03:42:19.378Z,-4.65
2022-12-14T03:45:06.129Z,-4.66
2022-12-14T03:47:51.544Z,-4.64
2022-12-14T03:50:23.777Z,-4.69
2022-12-14T03:52:58.580Z,-4.68
2022-12-14T03:55:56.039Z,-4.75
2022-12-14T03:58:44.767Z,-4.84
2022-12-14T04:01:18.196Z,-4.93
2022-12-14T04:04:01.034Z,-4.95
2022-12-14T04:06:40.365Z,-5.02
2022-12-14T04:09:20.350Z,-5.05
2022-12-14T04:12:24.162Z,-5.06
2022-12-14T04:15:17.751Z,-5.14
2022-12-14T04:18:05.631Z,-5.14
2022-12-14T04:20:43.114Z,-5.13
2022-12-14T04:23:52.155Z,-5.16
2022-12-14T04:26:27.983Z,-5.17
2022-12-14T04:29:19.558Z,-5.17
2022-12-14T04:31:52.679Z,-5.19
2022-12-14T04:34:24.407Z,-5.24
2022-12-14T04:36:58.754Z,-5.24
2022-12-14T04:40:11.701Z,-5.25
2022-12-14T04:42:53.059Z,-5.33
2022-12-14T04:45:26.013Z,-5.34
2022-12-14T04:48:01.159Z,-5.39
2022-12-14T04:50:35.833Z,-5.39
2022-12-14T04:53:21.871Z,-5.45
2022-12-14T04:55:58.485Z,-5.50
2022-12-14T04:58:29.233Z,-5.46
2022-12-14T05:01:35.032Z,-5.46
2022-12-14T05:04:16.399Z,-5.54
2022-12-14T05:07:02.661Z,-5.50
2022-12-14T05:09:56.967Z,-5.51
2022-12-14T05:12:53.014Z,-5.55
2022-12-14T05:15:26.700Z,-5.55
2022-12-14T05:17:55.158Z,-5.58
2022-12-14T05:20:25.135Z,-5.62
2022-12-14T05:22:52.750Z,-5.59
2022-12-14T05:25:20.266Z,-5.58
2022-12-14T05:27:47.728Z,-5.63
2022-12-14T05:30:15.625Z,-5.70
2022-12-14T05:32:43.197Z,-5.64
2022-12-14T05:35:13.302Z,-5.68
2022-12-14T05:37:41.634Z,-5.65
2022-12-14T05:40:10.048Z,-5.69
2022-12-14T05:42:44.143Z,-5.73
2022-12-14T05:45:13.644Z,-5.74
2022-12-14T05:47:41.442Z,-5.74
2022-12-14T05:50:09.575Z,-5.76
2022-12-14T05:52:37.140Z,-5.76
2022-12-14T05:55:05.166Z,-5.85
2022-12-14T05:57:32.948Z,-5.79
2022-12-14T06:00:00.551Z,-5.78
2022-12-14T06:02:28.190Z,-5.80
2022-12-14T06:04:55.749Z,-5.79
2022-12-14T06:07:27.716Z,-5.83
2022-12-14T06:09:55.873Z,-5.84
2022-12-14T06:12:23.388Z,-5.85
2022-12-14T06:14:50.889Z,-5.85
2022-12-14T06:17:18.388Z,-5.89
2022-12-14T06:19:49.767Z,-5.87
2022-12-14T06:22:18.533Z,-5.87
2022-12-14T06:24:45.998Z,-5.90
2022-12-14T06:27:13.533Z,-5.89
2022-12-14T06:29:41.029Z,-5.92
2022-12-14T06:32:08.575Z,-5.93
2022-12-14T06:34:39.765Z,-5.91
2022-12-14T06:37:08.238Z,-5.91
2022-12-14T06:39:35.789Z,-5.93
2022-12-14T06:42:03.523Z,-5.96
2022-12-14T06:44:31.043Z,-5.93
2022-12-14T06:46:58.640Z,-5.95
2022-12-14T06:49:26.186Z,-5.99
2022-12-14T06:51:53.755Z,-5.98
2022-12-14T06:54:21.294Z,-5.98
2022-12-14T06:56:48.892Z,-6.01
2022-12-14T06:59:17.293Z,-6.03
2022-12-14T07:01:49.979Z,-6.02
2022-12-14T07:04:21.092Z,-6.01
2022-12-14T07:06:48.675Z,-6.03
2022-12-14T07:09:16.215Z,-6.04
2022-12-14T07:11:43.778Z,-6.11
2022-12-14T07:14:17.556Z,-6.07
2022-12-14T07:16:48.643Z,-6.11
2022-12-14T07:19:16.689Z,-6.06
2022-12-14T07:21:44.222Z,-6.04
2022-12-14T07:24:11.792Z,-6.03
2022-12-14T07:26:39.337Z,-6.00
2022-12-14T07:29:07.066Z,-5.99
2022-12-14T07:31:34.701Z,-5.97
2022-12-14T07:34:02.283Z,-5.96
2022-12-14T07:36:32.856Z,-5.97
2022-12-14T07:39:00.439Z,-5.97
2022-12-14T07:41:31.167Z,-6.01
2022-12-14T07:44:01.135Z,-6.03
2022-12-14T07:46:32.081Z,-6.04
2022-12-14T07:49:00.841Z,-6.03
2022-12-14T07:51:30.793Z,-6.08
2022-12-14T07:53:59.121Z,-6.10
2022-12-14T07:56:29.352Z,-6.12
2022-12-14T07:58:58.101Z,-6.17
2022-12-14T08:01:28.825Z,-6.11
2022-12-14T08:04:00.751Z,-6.16
2022-12-14T08:06:30.980Z,-6.20
2022-12-14T08:08:59.414Z,-6.21
2022-12-14T08:11:27.287Z,-6.27
2022-12-14T08:13:59.459Z,-6.26
2022-12-14T08:16:27.683Z,-6.25
2022-12-14T08:18:57.104Z,-6.27
2022-12-14T08:21:25.281Z,-6.29
2022-12-14T08:23:54.438Z,-6.32
2022-12-14T08:26:24.925Z,-6.37
2022-12-14T08:28:57.282Z,-6.38
2022-12-14T08:31:27.834Z,-6.43
2022-12-14T08:33:55.565Z,-6.43
2022-12-14T08:36:26.829Z,-6.47
2022-12-14T08:39:21.211Z,-6.43
2022-12-14T08:41:48.755Z,-6.43
2022-12-14T08:44:18.154Z,-6.44
2022-12-14T08:46:45.745Z,-6.42
2022-12-14T08:49:13.434Z,-6.40
2022-12-14T08:51:41.938Z,-6.35
2022-12-14T08:54:09.598Z,-6.27
2022-12-14T08:56:37.155Z,-6.18
2022-12-14T08:59:04.767Z,-6.12
2022-12-14T09:01:34.452Z,-6.05
2022-12-14T09:04:07.903Z,-6.01
2022-12-14T09:06:39.009Z,-5.98
2022-12-14T09:09:15.481Z,-5.91
2022-12-14T09:11:44.161Z,-5.84
2022-12-14T09:14:11.941Z,-5.65
2022-12-14T09:16:40.169Z,-5.57
2022-12-14T09:19:07.868Z,-5.46
2022-12-14T09:21:35.491Z,-5.33
2022-12-14T09:24:03.199Z,-5.23
2022-12-14T09:26:30.847Z,-5.33
2022-12-14T09:28:58.965Z,-4.98
2022-12-14T09:31:28.367Z,-4.82
2022-12-14T09:33:56.754Z,-4.66
2022-12-14T09:36:26.417Z,-4.69
2022-12-14T09:38:55.153Z,-4.48
2022-12-14T09:41:35.199Z,-4.42
2022-12-14T09:44:18.668Z,-4.40
2022-12-14T09:47:03.530Z,-4.33
2022-12-14T09:49:43.765Z,-4.19
2022-12-14T09:52:16.926Z,-3.85
2022-12-14T09:54:49.816Z,-3.72
2022-12-14T09:57:34.355Z,-3.59
2022-12-14T10:00:02.093Z,-3.40
2022-12-14T10:02:42.015Z,-3.36
2022-12-14T10:05:37.199Z,-3.28
2022-12-14T10:08:29.627Z,-3.04
2022-12-14T10:11:19.760Z,-3.02
2022-12-14T10:13:50.101Z,-2.83
2022-12-14T10:16:43.886Z,-2.64
2022-12-14T10:19:57.721Z,-2.59
2022-12-14T10:22:38.816Z,-2.66
2022-12-14T10:25:19.335Z,-2.70
2022-12-14T10:28:12.396Z,-2.68
2022-12-14T10:30:42.587Z,-2.31
2022-12-14T10:33:18.531Z,-2.42
2022-12-14T10:35:51.729Z,-2.37
2022-12-14T10:38:33.849Z,-2.29
2022-12-14T10:41:13.813Z,-2.03
2022-12-14T10:43:54.282Z,-2.02
2022-12-14T10:47:00.326Z,-2.15
2022-12-14T10:49:31.198Z,-2.24
2022-12-14T10:52:09.200Z,-2.31
2022-12-14T10:54:45.168Z,-2.21
2022-12-14T10:57:27.367Z,-2.18
2022-12-14T11:00:08.261Z,-2.07
2022-12-14T11:02:41.481Z,-2.28
2022-12-14T11:05:38.710Z,-2.24
2022-12-14T11:08:08.313Z,-2.28
2022-12-14T11:10:39.435Z,-2.31
2022-12-14T11:13:15.093Z,-2.13
2022-12-14T11:15:45.185Z,-2.04
2022-12-14T11:18:12.841Z,-1.92
2022-12-14T11:21:15.248Z,-1.78
2022-12-14T11:23:46.040Z,-1.66
2022-12-14T11:26:27.803Z,-1.54
2022-12-14T11:29:00.745Z,-1.24
2022-12-14T11:32:01.379Z,-1.13
2022-12-14T11:34:41.608Z,-0.85
2022-12-14T11:37:32.721Z,-0.87
2022-12-14T11:40:03.712Z,-0.63
2022-12-14T11:42:31.914Z,-0.52
2022-12-14T11:45:31.403Z,-0.40
2022-12-14T11:48:17.039Z,-0.34
2022-12-14T11:50:46.144Z,-0.31
2022-12-14T11:53:16.912Z,-0.30
2022-12-14T11:56:05.890Z,-0.36
2022-12-14T11:58:39.430Z,-0.33
2022-12-14T12:01:21.182Z,-0.48
2022-12-14T12:03:54.064Z,-0.27
2022-12-14T12:06:28.575Z,-0.32
2022-12-14T12:09:04.632Z,-0.28
2022-12-14T12:11:34.803Z,-0.24
2022-12-14T12:14:23.716Z,-0.32
2022-12-14T12:16:53.150Z,0.01
2022-12-14T12:19:28.570Z,-0.10
2022-12-14T12:22:00.694Z,-0.18
2022-12-14T12:24:34.580Z,-0.44
2022-12-14T12:27:12.105Z,-0.65
2022-12-14T12:29:49.517Z,-0.89
2022-12-14T12:32:23.617Z,-0.83
2022-12-14T12:35:11.548Z,-0.79
2022-12-14T12:37:46.101Z,-0.57
2022-12-14T12:40:35.666Z,-0.57
2022-12-14T12:43:06.053Z,-0.56
2022-12-14T12:45:54.406Z,-0.66
2022-12-14T12:48:39.506Z,-0.59
2022-12-14T12:51:13.984Z,-0.69
2022-12-14T12:53:49.796Z,-0.71
2022-12-14T12:56:21.709Z,-0.80
2022-12-14T12:58:53.353Z,-0.88
2022-12-14T13:01:24.762Z,-0.99
2022-12-14T13:03:56.637Z,-1.03
2022-12-14T13:06:41.047Z,-1.16
2022-12-14T13:09:28.510Z,-1.19
2022-12-14T13:11:58.400Z,-1.23
2022-12-14T13:14:42.875Z,-1.27
2022-12-14T13:17:29.844Z,-1.29
2022-12-14T13:20:00.371Z,-1.32
2022-12-14T13:22:30.988Z,-1.38
2022-12-14T13:25:03.703Z,-1.37
2022-12-14T13:27:55.975Z,-1.35
2022-12-14T13:30:29.650Z,-1.38
2022-12-14T13:33:16.353Z,-1.43
2022-12-14T13:36:01.931Z,-1.48
2022-12-14T13:38:35.881Z,-1.47
2022-12-14T13:41:28.751Z,-1.44
2022-12-14T13:44:33.517Z,-1.46
2022-12-14T13:47:07.220Z,-1.47
2022-12-14T13:49:36.237Z,-1.43
2022-12-14T13:52:03.778Z,-1.44
2022-12-14T13:54:34.294Z,-1.45
2022-12-14T13:57:08.953Z,-1.52
2022-12-14T13:59:42.650Z,-1.46
2022-12-14T14:02:36.302Z,-1.46
2022-12-14T14:05:16.331Z,-1.47
2022-12-14T14:08:04.196Z,-1.43
2022-12-14T14:10:35.925Z,-1.30
2022-12-14T14:13:29.277Z,-1.13
2022-12-14T14:19:17.895Z,-1.17
2022-12-14T14:25:01.925Z,-1.30
2022-12-14T14:27:37.173Z,-1.41
2022-12-14T14:30:24.443Z,-1.72
2022-12-14T14:32:53.991Z,-1.59
2022-12-14T14:35:37.369Z,-1.69
2022-12-14T14:38:26.862Z,-1.67
2022-12-14T14:41:16.165Z,-1.73
2022-12-14T14:44:01.953Z,-1.76
2022-12-14T14:46:48.641Z,-1.78
2022-12-14T14:49:28.862Z,-1.82
2022-12-14T14:51:56.890Z,-1.90
2022-12-14T14:55:03.511Z,-1.96
2022-12-14T14:57:35.123Z,-2.03
2022-12-14T15:00:05.332Z,-2.06
2022-12-14T15:02:39.923Z,-2.02
2022-12-14T15:05:41.734Z,-2.09
2022-12-14T15:08:06.996Z,-2.18
2022-12-14T15:10:46.218Z,-2.27
2022-12-14T15:13:26.084Z,-2.26
2022-12-14T15:15:56.973Z,-2.35
2022-12-14T15:18:28.517Z,-2.45
2022-12-14T15:21:05.844Z,-2.52
2022-12-14T15:23:57.326Z,-2.61
2022-12-14T15:26:30.064Z,-2.69
2022-12-14T15:29:00.803Z,-2.81
2022-12-14T15:31:42.161Z,-2.89
2022-12-14T15:34:18.242Z,-3.04
2022-12-14T15:36:47.184Z,-3.16
2022-12-14T15:39:37.569Z,-3.26
2022-12-14T15:42:19.323Z,-3.28
2022-12-14T15:44:55.638Z,-3.32
2022-12-14T15:47:32.614Z,-3.41
2022-12-14T15:50:32.577Z,-3.55
2022-12-14T15:53:09.281Z,-3.65
2022-12-14T15:55:42.190Z,-3.68
2022-12-14T15:58:22.151Z,-3.67
2022-12-14T16:00:53.717Z,-3.64
2022-12-14T16:03:50.646Z,-3.65
2022-12-14T16:06:20.050Z,-3.62
2022-12-14T16:09:08.200Z,-3.64
2022-12-14T16:11:39.242Z,-3.64
2022-12-14T16:14:24.219Z,-3.66
2022-12-14T16:16:56.588Z,-3.77
2022-12-14T16:19:29.061Z,-3.73
2022-12-14T16:22:11.780Z,-3.73
2022-12-14T16:24:53.927Z,-3.76
2022-12-14T16:27:22.703Z,-3.77
2022-12-14T16:30:18.579Z,-3.79
2022-12-14T16:32:50.320Z,-3.83
2022-12-14T16:35:30.604Z,-3.89
2022-12-14T16:38:16.316Z,-3.97
2022-12-14T16:40:55.364Z,-4.03
2022-12-14T16:43:37.626Z,-4.12
2022-12-14T16:46:06.122Z,-4.20
2022-12-14T16:48:40.423Z,-4.22
2022-12-14T16:51:37.862Z,-4.24
2022-12-14T16:54:25.567Z,-4.35
2022-12-14T16:57:02.338Z,-4.36
2022-12-14T16:59:39.569Z,-4.41
2022-12-14T17:02:26.903Z,-4.38
2022-12-14T17:04:56.370Z,-4.43
2022-12-14T17:07:28.477Z,-4.39
2022-12-14T17:09:57.413Z,-4.42
2022-12-14T17:12:27.540Z,-4.41
2022-12-14T17:14:55.266Z,-4.35
2022-12-14T17:17:33.213Z,-4.35
2022-12-14T17:20:00.932Z,-4.46
2022-12-14T17:22:34.091Z,-4.44
2022-12-14T17:25:02.598Z,-4.35
2022-12-14T17:27:30.809Z,-4.40
2022-12-14T17:29:58.509Z,-4.38
2022-12-14T17:32:30.636Z,-4.36
2022-12-14T17:34:59.841Z,-4.37
2022-12-14T17:37:34.164Z,-4.40
2022-12-14T17:40:03.537Z,-4.34
2022-12-14T17:42:31.539Z,-4.37
2022-12-14T17:45:00.840Z,-4.30
2022-12-14T17:47:28.456Z,-4.25
2022-12-14T17:49:56.627Z,-4.29
2022-12-14T17:52:33.657Z,-4.33
2022-12-14T17:55:01.242Z,-4.35
2022-12-14T17:57:28.758Z,-4.36
2022-12-14T18:00:10.169Z,-4.45
2022-12-14T18:02:39.404Z,-4.58
2022-12-14T18:05:08.793Z,-4.59
2022-12-14T18:07:36.443Z,-4.50
2022-12-14T18:10:04.288Z,-4.48
2022-12-14T18:12:31.836Z,-4.42
2022-12-14T18:14:59.663Z,-4.39
2022-12-14T18:17:27.230Z,-4.36
2022-12-14T18:19:54.822Z,-4.34
2022-12-14T18:22:23.384Z,-4.33
2022-12-14T18:24:51.000Z,-4.29
2022-12-14T18:27:18.555Z,-4.32
2022-12-14T18:29:46.060Z,-4.31
2022-12-14T18:32:14.707Z,-4.33
2022-12-14T18:34:42.281Z,-4.33
2022-12-14T18:37:09.824Z,-4.29
2022-12-14T18:39:37.431Z,-4.28
2022-12-14T18:42:05.228Z,-4.24
2022-12-14T18:44:32.874Z,-4.19
2022-12-14T18:47:20.411Z,-4.21
2022-12-14T18:49:48.062Z,-4.11
2022-12-14T18:52:15.887Z,-4.08
2022-12-14T18:54:43.486Z,-4.05
2022-12-14T18:57:11.494Z,-4.02
2022-12-14T18:59:42.471Z,-4.02
2022-12-14T19:02:15.739Z,-4.06
2022-12-14T19:04:48.161Z,-4.04
2022-12-14T19:07:16.368Z,-4.05
2022-12-14T19:09:43.980Z,-4.06
2022-12-14T19:12:12.219Z,-4.13
2022-12-14T19:14:40.286Z,-4.23
2022-12-14T19:17:08.083Z,-4.22
2022-12-14T19:19:41.031Z,-4.25
2022-12-14T19:22:11.948Z,-4.24
2022-12-14T19:24:39.508Z,-4.22
2022-12-14T19:27:07.146Z,-4.20
2022-12-14T19:29:35.467Z,-4.17
2022-12-14T19:32:05.608Z,-4.25
2022-12-14T19:34:33.619Z,-4.30
2022-12-14T19:37:01.130Z,-4.35
2022-12-14T19:39:28.761Z,-4.40
2022-12-14T19:41:56.354Z,-4.38
2022-12-14T19:44:23.873Z,-4.43
2022-12-14T19:46:51.578Z,-4.41
2022-12-14T19:49:19.581Z,-4.46
2022-12-14T19:51:47.102Z,-4.48
2022-12-14T19:54:14.672Z,-4.54
2022-12-14T19:56:42.194Z,-4.52
2022-12-14T19:59:09.837Z,-4.53
2022-12-14T20:01:39.736Z,-4.57
2022-12-14T20:04:11.153Z,-4.41
2022-12-14T20:06:38.945Z,-4.37
2022-12-14T20:09:07.808Z,-4.35
2022-12-14T20:11:35.624Z,-4.31
2022-12-14T20:14:03.498Z,-4.22
2022-12-14T20:16:31.190Z,-4.19
2022-12-14T20:18:59.328Z,-4.16
2022-12-14T20:21:29.356Z,-4.03
2022-12-14T20:24:00.483Z,-3.94
2022-12-14T20:26:29.377Z,-3.93
2022-12-14T20:29:01.433Z,-3.94
2022-12-14T20:31:29.111Z,-3.99
2022-12-14T20:33:56.724Z,-3.99
2022-12-14T20:36:24.252Z,-4.00
2022-12-14T20:39:01.369Z,-3.97
2022-12-14T20:41:31.628Z,-3.88
2022-12-14T20:43:59.956Z,-3.81
2022-12-14T20:46:27.533Z,-3.80
2022-12-14T20:48:56.388Z,-3.77
2022-12-14T20:51:24.367Z,-3.72
2022-12-14T20:53:51.921Z,-3.66
2022-12-14T20:56:21.129Z,-3.61
2022-12-14T20:58:49.415Z,-3.66
2022-12-14T21:01:18.081Z,-3.71
2022-12-14T21:03:47.405Z,-3.81
2022-12-14T21:06:17.987Z,-3.78
2022-12-14T21:09:08.793Z,-3.82
2022-12-14T21:11:55.219Z,-3.88
2022-12-14T21:14:24.346Z,-3.95
2022-12-14T21:16:51.948Z,-4.00
2022-12-14T21:19:20.570Z,-4.06
2022-12-14T21:21:53.252Z,-4.06
2022-12-14T21:24:44.684Z,-3.99
2022-12-14T21:27:14.830Z,-3.94
2022-12-14T21:29:42.490Z,-3.95
2022-12-14T21:32:10.680Z,-4.03
2022-12-14T21:34:41.900Z,-4.10
2022-12-14T21:37:10.178Z,-4.16
2022-12-14T21:39:38.761Z,-4.19
2022-12-14T21:42:13.072Z,-4.27
2022-12-14T21:44:43.069Z,-4.31
2022-12-14T21:47:19.470Z,-4.29
2022-12-14T21:49:47.605Z,-4.32
2022-12-14T21:52:20.751Z,-4.32
2022-12-14T21:54:48.333Z,-4.32
2022-12-14T21:57:38.656Z,-4.33
2022-12-14T22:00:08.174Z,-4.32
2022-12-14T22:02:36.136Z,-4.31
2022-12-14T22:05:04.545Z,-4.35
2022-12-14T22:07:34.417Z,-4.39
2022-12-14T22:10:02.193Z,-4.47
2022-12-14T22:12:29.717Z,-4.50
2022-12-14T22:14:57.235Z,-4.54
2022-12-14T22:17:24.935Z,-4.54
2022-12-14T22:19:54.369Z,-4.69
2022-12-14T22:22:22.288Z,-4.58
2022-12-14T22:24:50.969Z,-4.59
2022-12-14T22:27:19.042Z,-4.51
2022-12-14T22:29:46.544Z,-4.47
2022-12-14T22:32:14.680Z,-4.47
2022-12-14T22:34:42.490Z,-4.43
2022-12-14T22:37:10.591Z,-4.41
2022-12-14T22:39:38.158Z,-4.38
2022-12-14T22:42:05.902Z,-4.34
2022-12-14T22:44:33.392Z,-4.30
2022-12-14T22:47:00.933Z,-4.29
2022-12-14T22:49:28.591Z,-4.28
2022-12-14T22:51:56.502Z,-4.26
2022-12-14T22:54:27.063Z,-4.28
2022-12-14T22:56:58.371Z,-4.24
2022-12-14T22:59:34.174Z,-4.25
2022-12-14T23:02:01.873Z,-4.30
2022-12-14T23:04:29.999Z,-4.29
2022-12-14T23:06:57.526Z,-4.35
2022-12-14T23:09:42.619Z,-4.32
2022-12-14T23:12:27.591Z,-4.51
2022-12-14T23:15:12.322Z,-4.34
2022-12-14T23:17:57.224Z,-4.35
2022-12-14T23:20:42.463Z,-4.36
2022-12-14T23:23:28.094Z,-4.38
2022-12-14T23:26:13.781Z,-4.39
2022-12-14T23:28:58.764Z,-4.37
2022-12-14T23:31:44.105Z,-4.38
2022-12-14T23:34:28.964Z,-4.33
2022-12-14T23:37:19.506Z,-4.34
2022-12-14T23:40:05.167Z,-4.33
2022-12-14T23:42:49.911Z,-4.34
2022-12-14T23:45:35.180Z,-4.34
2022-12-14T23:48:20.092Z,-4.33
2022-12-14T23:51:04.793Z,-4.44
2022-12-14T23:53:50.092Z,-4.43
2022-12-14T23:56:35.494Z,-4.47
2022-12-14T23:59:20.344Z,-4.55
